»·PEaware :: N2235T KSBP-KPMD

N2235T :: KSBP-KPMD

FLIGHT INFORMATION

Flight Status: Arrived
Operator: Privately registered:
United States
More flights under this callsign
Pilot: Todd S. (36365)
Aircraft: Unknown
(P28S)
More flights by this aircraft type
Origin: KSBP San Luis Co Regl
United States
Destination: KPMD Palmdale AF Plant 42
United States
More flights between these airports :: More routes between these airports
Route: FLW GMN
File this flight plan on PilotEdge
Remarks:
Altitude:
(Current/Filed)
9,500ft
Speed:
(Current/Filed)
150kts
Departed: 07-Sep-21 03:20 PM
Arrived: 07-Sep-21 04:25 PM
Distance/Time
Traveled:
131nm/1:05
Distance/Time
To Go:
Arrived

Flight Plot

Page will automatically refresh every two minutes.

Flight plan parsing failed; only flown route is shown


Map Options




Map Legend


Flown Route
Filed Route
Departure Airport
Arrival Airport
Navaid (VOR, NDB)
Fix

Horizontal Profiles

Position Reports

Time Latitude Longitude Heading Altitude Ground
Speed
07-Sep-21 15:11 35.238781 -120.641170 26 189ft 0kts
07-Sep-21 15:12 35.238781 -120.641170 26 189ft 0kts
07-Sep-21 15:13 35.238780 -120.641170 26 189ft 0kts
07-Sep-21 15:14 35.238369 -120.640941 161 190ft 8kts
07-Sep-21 15:15 35.236035 -120.636833 124 202ft 15kts
07-Sep-21 15:16 35.233323 -120.632363 178 218ft 10kts
07-Sep-21 15:17 35.233243 -120.632379 208 218ft 0kts
07-Sep-21 15:18 35.232943 -120.632658 221 217ft 9kts
07-Sep-21 15:19 35.240962 -120.646573 304 558ft 80kts
07-Sep-21 15:20 35.242261 -120.670986 200 1542ft 101kts
07-Sep-21 15:21 35.217232 -120.650962 126 2541ft 120kts
07-Sep-21 15:22 35.195400 -120.618823 112 3492ft 126kts
07-Sep-21 15:23 35.191590 -120.576842 92 4400ft 124kts
07-Sep-21 15:24 35.188706 -120.534714 92 5230ft 123kts
07-Sep-21 15:25 35.185695 -120.492982 92 5961ft 124kts
07-Sep-21 15:26 35.182683 -120.451252 92 6882ft 122kts
07-Sep-21 15:27 35.180002 -120.409177 92 7632ft 124kts
07-Sep-21 15:28 35.177909 -120.366944 92 8341ft 125kts
07-Sep-21 15:29 35.176370 -120.324307 92 8963ft 127kts
07-Sep-21 15:30 35.172656 -120.281682 102 9580ft 128kts
07-Sep-21 15:31 35.165804 -120.238903 102 10155ft 128kts
07-Sep-21 15:32 35.158527 -120.192264 102 10082ft 150kts
07-Sep-21 15:33 35.150858 -120.143062 102 10101ft 147kts
07-Sep-21 15:34 35.142701 -120.093749 104 10095ft 147kts
07-Sep-21 15:35 35.133435 -120.044932 106 10100ft 148kts
07-Sep-21 15:36 35.122473 -119.996262 108 10111ft 149kts
07-Sep-21 15:37 35.110228 -119.947985 109 10095ft 148kts
07-Sep-21 15:38 35.097915 -119.900180 109 10094ft 147kts
07-Sep-21 15:39 35.085549 -119.852335 111 10091ft 147kts
07-Sep-21 15:40 35.070999 -119.805438 113 10102ft 148kts
07-Sep-21 15:41 35.057342 -119.758473 110 10082ft 146kts
07-Sep-21 15:42 35.045287 -119.711094 109 10085ft 146kts
07-Sep-21 15:43 35.033346 -119.663697 109 10086ft 146kts
07-Sep-21 15:44 35.020797 -119.616228 110 10098ft 148kts
07-Sep-21 15:45 35.008915 -119.568108 108 10089ft 148kts
07-Sep-21 15:46 34.997566 -119.520029 107 10088ft 147kts
07-Sep-21 15:47 34.986658 -119.471755 107 10090ft 148kts
07-Sep-21 15:48 34.975676 -119.423281 107 10089ft 148kts
07-Sep-21 15:49 34.964649 -119.374826 107 10091ft 147kts
07-Sep-21 15:50 34.953431 -119.326697 108 10088ft 148kts
07-Sep-21 15:51 34.941041 -119.278860 109 10087ft 148kts
07-Sep-21 15:52 34.928479 -119.231103 109 10083ft 148kts
07-Sep-21 15:53 34.914753 -119.183436 111 10097ft 149kts
07-Sep-21 15:54 34.900920 -119.136501 111 10093ft 148kts
07-Sep-21 15:55 34.886888 -119.089446 111 10087ft 148kts
07-Sep-21 15:56 34.872179 -119.042164 112 10097ft 150kts
07-Sep-21 15:57 34.856937 -118.995004 115 10089ft 149kts
07-Sep-21 15:58 34.838992 -118.949586 117 10095ft 150kts
07-Sep-21 15:59 34.817794 -118.905798 125 10098ft 150kts
07-Sep-21 16:00 34.793905 -118.864616 119 10092ft 149kts
07-Sep-21 16:01 34.787074 -118.814992 95 10004ft 150kts
07-Sep-21 16:02 34.784436 -118.764237 94 9598ft 148kts
07-Sep-21 16:03 34.777873 -118.714792 107 9027ft 147kts
07-Sep-21 16:04 34.765821 -118.666983 108 8529ft 147kts
07-Sep-21 16:05 34.753775 -118.619671 108 8076ft 146kts
07-Sep-21 16:06 34.741875 -118.572914 108 7733ft 143kts
07-Sep-21 16:07 34.730580 -118.528097 107 7621ft 136kts
07-Sep-21 16:08 34.719370 -118.483664 108 7384ft 138kts
07-Sep-21 16:09 34.708192 -118.439065 108 7040ft 138kts
07-Sep-21 16:10 34.697308 -118.394868 107 6559ft 137kts
07-Sep-21 16:12 34.686589 -118.350657 108 6114ft 135kts
07-Sep-21 16:13 34.676076 -118.306633 107 5640ft 135kts
07-Sep-21 16:14 34.665822 -118.263023 108 5053ft 133kts
07-Sep-21 16:15 34.654924 -118.220767 111 4397ft 129kts
07-Sep-21 16:16 34.640836 -118.184977 156 4047ft 112kts
07-Sep-21 16:17 34.610011 -118.178694 182 4495ft 116kts
07-Sep-21 16:18 34.578686 -118.167565 140 4857ft 127kts
07-Sep-21 16:19 34.556139 -118.133649 111 5117ft 132kts
07-Sep-21 16:20 34.554017 -118.088706 74 5193ft 139kts
07-Sep-21 16:21 34.585679 -118.080217 347 4572ft 134kts
07-Sep-21 16:22 34.614262 -118.058588 52 3758ft 113kts
07-Sep-21 16:23 34.633994 -118.032917 337 3226ft 93kts
07-Sep-21 16:24 34.641064 -118.054383 232 2666ft 68kts
07-Sep-21 16:25 34.634643 -118.065174 314 2506ft 11kts
07-Sep-21 16:26 34.635862 -118.066610 270 2503ft 1kts
07-Sep-21 16:27 34.635740 -118.071309 265 2499ft 20kts
07-Sep-21 16:28 34.635451 -118.076686 264 2501ft 14kts
07-Sep-21 16:29 34.635168 -118.081858 264 2511ft 13kts
07-Sep-21 16:30 34.636023 -118.085866 56 2510ft 10kts
07-Sep-21 16:31 34.635984 -118.085659 184 2510ft 0kts
07-Sep-21 16:32 34.635984 -118.085659 184 2510ft 0kts

Navigation Log

Ident Type
Flight plan parsing failed, navigation log unavailable